createdAt,value
2022-10-06T00:02:09.613Z,1.32
2022-10-06T00:07:35.452Z,1.18
2022-10-06T00:13:00.787Z,1.43
2022-10-06T00:18:26.919Z,1.40
2022-10-06T00:24:10.412Z,1.30
2022-10-06T00:29:51.470Z,1.59
2022-10-06T00:35:17.687Z,1.64
2022-10-06T00:40:56.148Z,1.49
2022-10-06T00:46:29.128Z,1.45
2022-10-06T00:52:21.964Z,1.70
2022-10-06T00:57:55.694Z,1.56
2022-10-06T01:03:32.426Z,1.73
2022-10-06T01:09:15.143Z,1.91
2022-10-06T01:14:59.893Z,1.56
2022-10-06T01:20:27.550Z,1.84
2022-10-06T01:26:02.013Z,1.68
2022-10-06T01:31:44.331Z,1.78
2022-10-06T01:37:42.955Z,1.45
2022-10-06T01:43:09.853Z,1.76
2022-10-06T01:48:52.350Z,1.83
2022-10-06T01:54:27.774Z,1.78
2022-10-06T02:00:26.036Z,1.80
2022-10-06T02:06:05.289Z,1.58
2022-10-06T02:12:21.471Z,2.16
2022-10-06T02:17:41.084Z,1.91
2022-10-06T02:23:09.564Z,1.59
2022-10-06T02:29:09.774Z,1.86
2022-10-06T02:34:38.423Z,1.82
2022-10-06T02:40:09.516Z,1.89
2022-10-06T02:45:43.899Z,1.60
2022-10-06T02:51:48.243Z,1.99
2022-10-06T02:57:14.055Z,1.68
2022-10-06T03:02:57.371Z,1.46
2022-10-06T03:08:38.097Z,1.55
2022-10-06T03:14:19.256Z,1.29
2022-10-06T03:19:44.221Z,1.45
2022-10-06T03:25:13.374Z,1.31
2022-10-06T03:30:49.176Z,0.99
2022-10-06T03:36:24.292Z,0.81
2022-10-06T03:42:02.324Z,0.67
2022-10-06T03:47:36.684Z,0.65
2022-10-06T03:53:10.179Z,0.65
2022-10-06T03:58:55.387Z,0.83
2022-10-06T04:04:30.748Z,0.64
2022-10-06T04:10:09.483Z,0.65
2022-10-06T04:16:07.283Z,0.91
2022-10-06T04:21:52.764Z,0.46
2022-10-06T04:27:24.891Z,0.36
2022-10-06T04:32:48.527Z,0.57
2022-10-06T04:38:19.642Z,0.37
2022-10-06T04:43:48.576Z,0.35
2022-10-06T04:49:19.542Z,0.51
2022-10-06T04:55:05.847Z,0.43
2022-10-06T05:00:36.488Z,0.43
2022-10-06T05:06:29.556Z,0.36
2022-10-06T05:12:54.581Z,0.45
2022-10-06T05:31:06.178Z,0.49
2022-10-06T05:36:29.275Z,0.42
2022-10-06T05:41:51.028Z,0.55
2022-10-06T05:47:14.487Z,0.50
2022-10-06T05:52:42.487Z,0.49
2022-10-06T05:58:09.454Z,0.43
2022-10-06T06:03:36.509Z,0.53
2022-10-06T06:08:58.033Z,0.35
2022-10-06T06:14:26.537Z,0.50
2022-10-06T06:19:50.096Z,0.54
2022-10-06T06:25:17.440Z,0.57
2022-10-06T06:30:39.126Z,0.56
2022-10-06T06:36:06.578Z,0.48
2022-10-06T06:41:33.828Z,0.50
2022-10-06T06:47:00.867Z,1.23
2022-10-06T06:52:29.316Z,0.49
2022-10-06T06:57:57.171Z,0.47
2022-10-06T07:03:52.186Z,0.87
2022-10-06T07:08:49.459Z,0.47
2022-10-06T07:14:17.218Z,0.61
2022-10-06T07:19:42.766Z,0.51
2022-10-06T07:25:07.616Z,0.50
2022-10-06T07:30:38.469Z,0.60
2022-10-06T07:36:00.779Z,0.39
2022-10-06T07:41:27.350Z,0.45
2022-10-06T07:46:54.277Z,0.33
2022-10-06T07:52:21.735Z,0.44
2022-10-06T07:57:48.434Z,0.67
2022-10-06T08:03:10.715Z,0.44
2022-10-06T08:08:34.826Z,0.59
2022-10-06T08:14:04.517Z,0.56
2022-10-06T08:19:29.296Z,0.71
2022-10-06T08:25:05.853Z,0.52
2022-10-06T08:30:25.091Z,0.57
2022-10-06T08:35:53.463Z,0.84
2022-10-06T08:41:19.071Z,0.82
2022-10-06T08:46:43.269Z,0.61
2022-10-06T08:52:10.833Z,0.60
2022-10-06T08:57:46.170Z,0.56
2022-10-06T09:03:11.243Z,0.48
2022-10-06T09:08:37.316Z,0.64
2022-10-06T09:14:03.835Z,0.76
2022-10-06T09:19:29.983Z,0.75
2022-10-06T09:24:54.651Z,0.77
2022-10-06T09:30:17.096Z,1.07
2022-10-06T09:35:41.474Z,0.98
2022-10-06T09:41:27.961Z,0.62
2022-10-06T09:46:55.037Z,1.06
2022-10-06T09:52:22.180Z,0.88
2022-10-06T09:57:48.253Z,0.52
2022-10-06T10:03:14.439Z,0.72
2022-10-06T10:08:40.875Z,0.86
2022-10-06T10:14:04.723Z,1.11
2022-10-06T10:19:38.138Z,1.00
2022-10-06T10:25:09.644Z,0.59
2022-10-06T10:30:47.478Z,0.76
2022-10-06T10:36:12.498Z,0.99
2022-10-06T10:41:43.486Z,0.71
2022-10-06T10:47:05.837Z,0.93
2022-10-06T10:52:35.273Z,0.82
2022-10-06T10:58:00.769Z,0.82
2022-10-06T11:03:26.723Z,0.87
2022-10-06T11:08:53.457Z,0.54
2022-10-06T11:14:22.982Z,0.87
2022-10-06T11:20:01.383Z,0.78
2022-10-06T11:25:25.191Z,0.65
2022-10-06T11:30:48.789Z,0.72
2022-10-06T11:36:18.959Z,0.71
2022-10-06T11:41:44.377Z,0.83
2022-10-06T11:47:11.885Z,0.97
2022-10-06T11:52:39.078Z,0.91
2022-10-06T11:58:23.528Z,0.76
2022-10-06T12:03:38.059Z,0.76
2022-10-06T12:09:07.294Z,0.74
2022-10-06T12:20:17.791Z,0.76
2022-10-06T12:25:44.433Z,0.89
2022-10-06T12:31:09.631Z,0.54
2022-10-06T12:36:57.217Z,0.67
2022-10-06T12:42:36.917Z,0.92
2022-10-06T12:48:01.163Z,0.97
2022-10-06T12:53:25.763Z,0.78
2022-10-06T12:58:52.198Z,0.70
2022-10-06T13:04:18.635Z,0.68
2022-10-06T13:09:57.409Z,0.74
2022-10-06T13:15:39.697Z,1.16
2022-10-06T13:21:03.878Z,0.62
2022-10-06T13:26:29.753Z,1.15
2022-10-06T13:31:56.793Z,0.79
2022-10-06T13:37:18.091Z,0.42
2022-10-06T13:42:42.984Z,0.96
2022-10-06T13:48:09.123Z,0.60
2022-10-06T13:53:36.109Z,0.67
2022-10-06T13:59:05.061Z,0.83
2022-10-06T14:04:49.494Z,0.60
2022-10-06T14:10:38.794Z,0.62
2022-10-06T14:16:04.226Z,0.62
2022-10-06T14:21:29.864Z,0.76
2022-10-06T14:26:57.578Z,1.05
2022-10-06T14:32:21.259Z,0.72
2022-10-06T14:37:49.405Z,0.53
2022-10-06T14:43:11.274Z,0.61
2022-10-06T14:48:39.066Z,0.87
2022-10-06T14:54:06.860Z,0.82
2022-10-06T14:59:31.489Z,1.19
2022-10-06T15:04:58.791Z,0.67
2022-10-06T15:10:28.140Z,0.63
2022-10-06T15:15:54.735Z,0.84
2022-10-06T15:21:22.569Z,1.42
2022-10-06T15:26:50.443Z,1.02
2022-10-06T15:32:29.693Z,0.91
2022-10-06T15:37:59.245Z,0.65
2022-10-06T15:43:38.539Z,1.04
2022-10-06T15:49:09.415Z,0.75
2022-10-06T15:54:40.408Z,0.66
2022-10-06T16:00:12.200Z,0.85
2022-10-06T16:05:51.155Z,0.59
2022-10-06T16:11:18.627Z,0.95
2022-10-06T16:16:53.500Z,0.69
2022-10-06T16:22:25.474Z,1.58
2022-10-06T16:27:50.385Z,0.67
2022-10-06T16:33:18.339Z,0.49
2022-10-06T16:38:43.946Z,0.54
2022-10-06T16:44:12.109Z,0.77
2022-10-06T16:49:39.991Z,0.87
2022-10-06T16:55:06.878Z,0.70
2022-10-06T17:00:28.734Z,0.77
2022-10-06T17:05:54.984Z,0.80
2022-10-06T17:11:24.256Z,0.62
2022-10-06T17:16:51.630Z,1.42
2022-10-06T17:22:13.093Z,2.36
2022-10-06T17:27:39.622Z,1.00
2022-10-06T17:32:56.764Z,1.21
2022-10-06T17:38:19.999Z,0.89
2022-10-06T17:43:46.586Z,0.83
2022-10-06T17:49:08.685Z,1.79
2022-10-06T17:54:30.920Z,2.30
2022-10-06T17:59:53.997Z,1.23
2022-10-06T18:05:18.655Z,1.25
2022-10-06T18:10:41.990Z,1.40
2022-10-06T18:16:06.870Z,1.15
2022-10-06T18:21:35.942Z,1.11
2022-10-06T18:26:58.039Z,1.00
2022-10-06T18:37:46.720Z,0.92
2022-10-06T18:43:11.790Z,1.10
2022-10-06T18:48:46.225Z,1.13
2022-10-06T18:54:10.685Z,1.08
2022-10-06T18:59:33.868Z,1.18
2022-10-06T19:04:57.856Z,1.05
2022-10-06T19:10:24.303Z,0.99
2022-10-06T19:15:47.596Z,1.08
2022-10-06T19:21:14.637Z,1.62
2022-10-06T19:26:46.342Z,1.29
2022-10-06T19:32:12.142Z,1.51
2022-10-06T19:37:37.689Z,2.20
2022-10-06T19:43:02.799Z,1.17
2022-10-06T19:48:26.330Z,0.94
2022-10-06T19:53:49.580Z,1.01
2022-10-06T19:59:13.656Z,0.96
2022-10-06T20:04:36.104Z,0.95
2022-10-06T20:10:02.258Z,0.91
2022-10-06T20:15:28.848Z,0.90
2022-10-06T20:20:51.350Z,1.40
2022-10-06T20:26:18.863Z,1.07
2022-10-06T20:31:40.023Z,0.82
2022-10-06T20:37:05.713Z,0.73
2022-10-06T20:42:31.638Z,0.72
2022-10-06T20:47:58.225Z,0.98
2022-10-06T20:53:23.726Z,0.87
2022-10-06T20:58:48.972Z,1.06
2022-10-06T21:04:15.154Z,0.72
2022-10-06T21:09:41.264Z,0.95
2022-10-06T21:15:07.842Z,0.71
2022-10-06T21:20:33.512Z,0.61
2022-10-06T21:25:58.473Z,0.72
2022-10-06T21:31:25.682Z,0.67
2022-10-06T21:36:51.882Z,0.51
2022-10-06T21:42:16.907Z,0.57
2022-10-06T21:47:43.002Z,0.66
2022-10-06T21:53:09.694Z,0.62
2022-10-06T21:58:36.650Z,0.84
2022-10-06T22:04:03.012Z,0.61
2022-10-06T22:09:29.939Z,1.05
2022-10-06T22:14:57.062Z,1.24
2022-10-06T22:20:23.209Z,1.17
2022-10-06T22:25:49.763Z,1.19
2022-10-06T22:31:24.700Z,1.39
2022-10-06T22:36:46.447Z,1.06
2022-10-06T22:42:10.015Z,1.38
2022-10-06T22:47:37.471Z,1.12
2022-10-06T22:53:05.049Z,1.00
2022-10-06T22:58:31.666Z,1.12
2022-10-06T23:03:56.653Z,1.31
2022-10-06T23:09:19.227Z,1.43
2022-10-06T23:14:43.864Z,1.35
2022-10-06T23:20:06.425Z,0.96
2022-10-06T23:25:33.775Z,1.01
2022-10-06T23:30:59.021Z,0.95
2022-10-06T23:36:25.056Z,0.91
2022-10-06T23:41:49.766Z,1.08
2022-10-06T23:47:15.047Z,1.05
2022-10-06T23:52:40.699Z,1.01
2022-10-06T23:58:08.110Z,0.99
